North Grosvenordale, Connecticut
Current Conditions -  °F | °C
As of 5:54 PM on Friday 28 Nov 2014 (Local Time) from KORH Reporting Station
Overcast Overcast  
Wind Chill: 13°   Ceiling: 4400
Heat Index: 25°   Visibility: 10mi
Dew Point: 17°   Wind: 15mph
Humidity: 72%   Direction: 300°WNW
Pressure: 30.1"   Gusts: 22mph
Location:  41.99°N, 71.9°W
Report Text: KORH 282254Z 30013G19KT 10SM OVC044 M04/M08 A3010 RMK AO2 SLP209 T10391083
Loading
Personal Weather Stations






























Interactive Weather Map New forecast layout! Learn more

10-Day Weather Forecast

Advertisements
Track Severe Weather on mobile